Time;durP1;ratioP1;P1;durP2;ratioP2;P2;SDS_P1;SDS_P2;PMS_P1;PMS_P2;Temp;Humidity;BMP_temperature;BMP_pressure;BME280_temperature;BME280_humidity;BME280_pressure;Samples;Min_cycle;Max_cycle;Signal;HPM_P1;HPM_P2
2021/03/25 00:00:29;;;;;;;48.00;27.93;;;;;;;8.34;60.95;100773.22;5080391;28;20534;-69
2021/03/25 00:02:56;;;;;;;55.20;27.30;;;;;;;8.25;61.33;100771.25;5082210;28;20436;-69
2021/03/25 00:05:25;;;;;;;55.30;30.00;;;;;;;8.14;61.86;100768.50;5081542;28;20424;-70
2021/03/25 00:07:51;;;;;;;57.37;30.07;;;;;;;8.04;62.09;100766.53;5081604;28;20440;-68
2021/03/25 00:10:23;;;;;;;54.93;28.80;;;;;;;7.99;61.97;100767.81;5080191;28;20533;-69
2021/03/25 00:12:49;;;;;;;61.70;30.37;;;;;;;8.04;61.80;100761.19;5081839;28;20529;-68
2021/03/25 00:15:18;;;;;;;50.20;30.77;;;;;;;8.01;62.29;100760.56;5080798;28;20444;-67
2021/03/25 00:17:44;;;;;;;50.80;28.80;;;;;;;7.98;62.21;100761.63;5081775;28;20437;-70
2021/03/25 00:20:13;;;;;;;51.53;29.97;;;;;;;7.97;62.68;100759.06;5080957;28;21003;-70
2021/03/25 00:22:39;;;;;;;52.07;30.23;;;;;;;7.96;62.61;100763.56;5081340;28;20470;-70
2021/03/25 00:25:07;;;;;;;58.40;30.40;;;;;;;8.03;62.42;100770.13;5081244;28;20428;-70
2021/03/25 00:27:34;;;;;;;54.43;29.37;;;;;;;7.98;62.23;100758.97;5081181;28;20479;-70
2021/03/25 00:30:01;;;;;;;56.47;30.53;;;;;;;7.97;61.83;100757.28;5080352;28;20452;-70
2021/03/25 00:32:27;;;;;;;57.87;30.87;;;;;;;7.92;62.62;100759.44;5081114;28;20918;-71
2021/03/25 00:34:53;;;;;;;57.90;30.33;;;;;;;7.85;62.46;100752.84;5081595;28;21007;-69
2021/03/25 00:37:19;;;;;;;55.27;29.63;;;;;;;7.78;63.08;100764.88;5080230;28;20530;-70
2021/03/25 00:39:45;;;;;;;57.30;29.67;;;;;;;7.76;63.17;100758.81;5079671;28;20452;-70
2021/03/25 00:42:12;;;;;;;62.53;30.37;;;;;;;7.83;62.67;100754.75;5061166;28;20491;-70
2021/03/25 00:44:39;;;;;;;54.73;27.70;;;;;;;7.79;62.24;100753.28;5061645;28;20475;-68
2021/03/25 00:47:05;;;;;;;45.70;26.83;;;;;;;7.79;61.47;100750.63;5080290;28;20480;-70
2021/03/25 00:49:34;;;;;;;44.20;25.33;;;;;;;7.66;61.70;100759.47;5081032;28;20431;-70
2021/03/25 00:52:00;;;;;;;48.70;27.67;;;;;;;7.63;62.20;100748.22;5079942;28;20504;-70
2021/03/25 00:54:26;;;;;;;47.57;28.10;;;;;;;7.56;62.42;100753.13;5081408;28;20828;-69
2021/03/25 00:56:52;;;;;;;46.17;25.40;;;;;;;7.58;62.05;100761.81;5080328;28;20488;-70
2021/03/25 00:59:18;;;;;;;42.60;23.60;;;;;;;7.55;62.00;100754.06;5080678;28;20455;-68
2021/03/25 01:01:45;;;;;;;40.13;25.27;;;;;;;7.60;61.58;100749.25;5079785;28;20475;-70
2021/03/25 01:04:12;;;;;;;46.83;25.33;;;;;;;7.44;61.66;100746.00;5081851;28;20477;-69
2021/03/25 01:06:38;;;;;;;49.47;28.63;;;;;;;7.24;63.37;100737.63;5079631;28;20492;-71
2021/03/25 01:09:11;;;;;;;51.50;29.10;;;;;;;7.33;63.49;100733.47;5080860;28;20471;-70
2021/03/25 01:11:37;;;;;;;56.97;30.10;;;;;;;7.20;64.21;100735.28;5079531;28;20499;-71
2021/03/25 01:14:09;;;;;;;62.23;32.30;;;;;;;6.69;66.36;100726.31;5081350;28;20831;-70
2021/03/25 01:16:37;;;;;;;67.27;36.27;;;;;;;6.35;69.10;100725.94;5079697;28;20483;-70
2021/03/25 01:19:11;;;;;;;67.93;33.10;;;;;;;6.97;66.98;100727.06;5081256;28;20429;-70
2021/03/25 01:21:38;;;;;;;67.33;34.83;;;;;;;7.11;65.95;100731.44;5079721;28;20860;-69
2021/03/25 01:24:05;;;;;;;59.50;32.83;;;;;;;7.18;65.38;100727.41;5081122;28;20447;-70
2021/03/25 01:26:31;;;;;;;62.47;33.10;;;;;;;7.06;65.54;100723.78;5079866;28;20480;-69
2021/03/25 01:29:00;;;;;;;72.20;34.50;;;;;;;7.05;65.26;100714.13;5080832;28;20443;-68
2021/03/25 01:31:26;;;;;;;59.90;30.90;;;;;;;7.04;64.73;100712.41;5078440;28;20500;-70
2021/03/25 01:33:52;;;;;;;50.73;27.63;;;;;;;6.86;64.36;100714.53;5081595;28;20447;-67
2021/03/25 01:36:19;;;;;;;49.63;27.10;;;;;;;6.82;64.02;100704.22;5079649;28;20480;-70
2021/03/25 01:38:45;;;;;;;46.80;24.10;;;;;;;6.83;63.66;100708.56;5080793;28;20506;-70
2021/03/25 01:41:11;;;;;;;49.67;28.07;;;;;;;6.79;63.72;100703.47;5079933;28;20472;-70
2021/03/25 01:43:40;;;;;;;54.00;30.07;;;;;;;6.66;64.60;100707.06;5080569;28;20486;-71
2021/03/25 01:46:19;;;;;;;50.80;29.70;;;;;;;6.51;65.31;100698.31;5079712;28;20480;-68
2021/03/25 01:48:47;;;;;;;64.57;33.47;;;;;;;6.22;66.49;100696.66;5080614;28;20526;-67
2021/03/25 01:51:24;;;;;;;52.70;28.70;;;;;;;6.50;65.50;100694.81;5081081;28;20659;-70
2021/03/25 01:54:22;;;;;;;65.93;32.03;;;;;;;6.69;64.54;100694.41;5084689;28;20451;-69
2021/03/25 01:57:28;;;;;;;45.13;28.40;;;;;;;6.74;64.24;100691.47;5077730;28;20561;-70
2021/03/25 02:00:26;;;;;;;54.33;30.00;;;;;;;6.76;64.32;100690.38;5084139;28;20542;-69
2021/03/25 02:03:07;;;;;;;49.10;27.20;;;;;;;6.70;64.90;100689.94;5083506;28;20460;-67
2021/03/25 02:05:42;;;;;;;51.63;27.27;;;;;;;6.68;64.16;100683.91;5063395;28;20464;-70
2021/03/25 02:08:14;;;;;;;49.30;26.10;;;;;;;6.76;63.46;100686.88;5065694;28;20456;-71
2021/03/25 02:10:48;;;;;;;51.10;28.60;;;;;;;6.72;63.45;100672.13;5083351;28;20485;-67
2021/03/25 02:13:27;;;;;;;47.47;24.20;;;;;;;6.56;64.10;100681.13;5084058;28;20447;-70
2021/03/25 02:15:59;;;;;;;45.97;24.70;;;;;;;6.54;63.95;100682.19;5083021;28;20471;-67
2021/03/25 02:18:29;;;;;;;40.27;23.77;;;;;;;6.49;63.85;100679.84;5083918;28;20472;-70
2021/03/25 02:21:32;;;;;;;49.33;25.60;;;;;;;6.46;64.26;100682.72;5083241;28;20467;-70
2021/03/25 02:24:14;;;;;;;46.70;24.70;;;;;;;6.53;63.80;100681.34;5083108;28;20454;-70
2021/03/25 02:26:44;;;;;;;42.43;23.63;;;;;;;6.52;63.52;100682.28;5083064;28;20490;-70
2021/03/25 02:29:17;;;;;;;44.63;25.40;;;;;;;6.48;63.79;100683.44;5083439;28;20448;-69
2021/03/25 02:31:46;;;;;;;42.80;22.63;;;;;;;6.53;63.78;100689.31;5082230;28;20492;-67
2021/03/25 02:34:16;;;;;;;54.77;27.60;;;;;;;6.41;64.15;100685.66;5083918;28;20444;-68
2021/03/25 02:36:45;;;;;;;54.20;28.30;;;;;;;6.53;64.34;100691.13;5083169;28;20484;-69
2021/03/25 02:39:14;;;;;;;56.53;27.87;;;;;;;6.54;64.20;100688.31;5082762;28;20441;-69
2021/03/25 02:41:44;;;;;;;46.20;27.80;;;;;;;6.48;64.24;100691.41;5082575;28;20479;-68
2021/03/25 02:44:12;;;;;;;57.93;27.60;;;;;;;6.48;64.25;100691.41;5083412;28;20452;-70
2021/03/25 02:46:42;;;;;;;61.40;29.53;;;;;;;6.38;64.65;100685.03;5082883;28;20487;-70
2021/03/25 02:49:11;;;;;;;59.30;30.30;;;;;;;6.20;65.91;100681.78;5083008;28;20447;-69
2021/03/25 02:51:40;;;;;;;60.80;30.30;;;;;;;6.40;65.61;100678.63;5082684;28;20476;-67
2021/03/25 02:54:07;;;;;;;56.33;29.70;;;;;;;6.51;65.52;100677.06;5082329;28;20444;-69
2021/03/25 02:56:38;;;;;;;62.63;29.93;;;;;;;6.48;64.97;100686.09;5082875;28;20468;-70
2021/03/25 02:59:10;;;;;;;59.73;30.70;;;;;;;6.59;64.62;100688.88;5082988;28;20872;-69
2021/03/25 03:01:38;;;;;;;55.93;28.57;;;;;;;6.61;64.16;100688.78;5082061;28;20479;-69
2021/03/25 03:04:06;;;;;;;55.50;29.00;;;;;;;6.56;64.17;100693.53;5082391;28;20464;-70
2021/03/25 03:06:36;;;;;;;54.43;28.40;;;;;;;6.57;64.00;100688.13;5082504;28;20492;-69
2021/03/25 03:09:04;;;;;;;53.17;29.43;;;;;;;6.65;64.04;100689.41;5082750;28;20452;-70
2021/03/25 03:11:34;;;;;;;57.83;31.00;;;;;;;6.70;63.49;100681.97;5082103;28;20488;-69
2021/03/25 03:14:04;;;;;;;55.47;31.83;;;;;;;6.64;64.00;100674.44;5082454;28;20490;-68
2021/03/25 03:16:35;;;;;;;59.20;31.90;;;;;;;6.57;64.22;100681.97;5081636;28;20491;-66
2021/03/25 03:19:06;;;;;;;57.27;32.27;;;;;;;6.53;64.40;100680.50;5083054;28;20441;-70
2021/03/25 03:21:37;;;;;;;62.50;33.43;;;;;;;6.46;64.96;100680.06;5081716;28;20472;-70
2021/03/25 03:24:05;;;;;;;62.77;31.23;;;;;;;6.57;64.49;100685.47;5082144;28;20478;-69
2021/03/25 03:26:33;;;;;;;58.27;31.60;;;;;;;6.52;64.62;100679.63;5081676;28;20483;-65
2021/03/25 03:29:04;;;;;;;63.67;32.60;;;;;;;6.41;64.55;100685.66;5082433;28;20463;-67
2021/03/25 03:31:39;;;;;;;60.50;32.93;;;;;;;6.44;64.63;100678.44;5081325;28;20483;-70
2021/03/25 03:34:09;;;;;;;61.80;33.27;;;;;;;6.33;65.13;100681.81;5082489;28;20443;-69
2021/03/25 03:36:38;;;;;;;68.03;34.40;;;;;;;6.07;67.44;100678.25;5081881;28;20828;-69
2021/03/25 03:39:07;;;;;;;60.80;33.03;;;;;;;5.93;67.89;100679.97;5081880;28;20428;-70
2021/03/25 03:41:35;;;;;;;73.33;37.03;;;;;;;5.17;71.60;100675.94;5081242;28;20479;-65
2021/03/25 03:44:05;;;;;;;68.40;38.10;;;;;;;5.11;72.41;100673.69;5081895;28;20483;-69
2021/03/25 03:46:32;;;;;;;62.17;34.17;;;;;;;5.15;71.91;100663.75;5081225;28;20491;-69
2021/03/25 03:49:03;;;;;;;77.27;38.00;;;;;;;5.26;72.26;100667.44;5082389;28;20444;-69
2021/03/25 03:51:32;;;;;;;84.00;39.70;;;;;;;5.84;70.52;100668.16;5081151;28;20492;-70
2021/03/25 03:54:01;;;;;;;63.13;35.70;;;;;;;5.73;68.07;100677.75;5082165;28;20794;-69
2021/03/25 03:56:32;;;;;;;66.03;31.63;;;;;;;6.03;66.41;100677.59;5081768;28;20479;-70
2021/03/25 03:59:01;;;;;;;74.17;34.80;;;;;;;6.03;66.77;100672.28;5081461;28;20472;-69
2021/03/25 04:01:34;;;;;;;71.50;35.03;;;;;;;6.17;65.74;100677.53;5079175;28;20480;-68
2021/03/25 04:04:03;;;;;;;65.17;33.07;;;;;;;6.23;65.65;100670.94;5081079;28;20487;-70
2021/03/25 04:06:31;;;;;;;82.40;35.73;;;;;;;6.30;65.59;100674.94;5081128;28;20483;-67
2021/03/25 04:09:03;;;;;;;64.97;35.00;;;;;;;6.31;65.50;100673.09;5081252;28;20452;-67
2021/03/25 04:11:34;;;;;;;62.93;34.97;;;;;;;6.18;66.00;100671.28;5081241;28;20972;-69
2021/03/25 04:14:02;;;;;;;58.63;32.77;;;;;;;6.19;65.54;100674.78;5081137;28;20456;-66
2021/03/25 04:16:30;;;;;;;63.97;34.00;;;;;;;6.34;65.29;100672.91;5080276;28;20996;-67
2021/03/25 04:18:58;;;;;;;67.20;36.00;;;;;;;6.32;65.58;100675.66;5082737;28;20486;-67
2021/03/25 04:21:27;;;;;;;76.73;35.07;;;;;;;6.00;66.80;100672.47;5080414;28;20862;-70
2021/03/25 04:23:54;;;;;;;67.90;35.33;;;;;;;6.10;66.77;100668.28;5081776;28;20852;-69
2021/03/25 04:26:26;;;;;;;68.37;35.87;;;;;;;6.17;67.25;100666.91;5080895;28;20475;-70
2021/03/25 04:29:00;;;;;;;75.10;37.03;;;;;;;6.17;67.38;100674.88;5081202;28;20456;-66
2021/03/25 04:31:28;;;;;;;62.30;34.17;;;;;;;6.18;66.37;100679.25;5080242;28;20855;-69
2021/03/25 04:33:55;;;;;;;70.70;36.37;;;;;;;6.25;65.96;100677.03;5082033;28;20460;-69
2021/03/25 04:36:22;;;;;;;64.40;33.33;;;;;;;6.14;66.41;100671.56;5080675;28;20506;-68
2021/03/25 04:38:49;;;;;;;65.27;34.47;;;;;;;5.88;66.76;100671.44;5080912;28;20452;-67
2021/03/25 04:41:16;;;;;;;62.73;31.43;;;;;;;6.06;66.40;100684.50;5079922;28;20476;-69
2021/03/25 04:43:45;;;;;;;66.40;33.87;;;;;;;6.30;65.00;100674.06;5081292;28;20428;-69
2021/03/25 04:46:41;;;;;;;68.37;35.40;;;;;;;6.34;64.68;100681.72;5080358;28;20479;-67
2021/03/25 04:49:13;;;;;;;66.93;31.27;;;;;;;6.32;65.16;100678.31;5081269;28;20843;-69
2021/03/25 04:51:39;;;;;;;63.87;33.67;;;;;;;6.11;65.81;100677.94;5080354;28;20483;-70
2021/03/25 04:54:12;;;;;;;77.90;39.57;;;;;;;6.17;66.81;100672.22;5081613;28;20455;-69
2021/03/25 04:56:39;;;;;;;59.80;32.50;;;;;;;6.24;66.57;100674.47;5080812;28;20475;-68
2021/03/25 04:59:07;;;;;;;60.53;32.37;;;;;;;6.35;65.34;100685.22;5080784;28;20483;-69
2021/03/25 05:01:34;;;;;;;69.67;39.60;;;;;;;6.33;66.77;100677.34;5079734;28;20478;-69
2021/03/25 05:04:02;;;;;;;80.63;43.23;;;;;;;5.83;68.66;100673.53;5080991;28;20440;-69
2021/03/25 05:06:31;;;;;;;87.67;43.60;;;;;;;5.89;69.55;100672.31;5080841;28;20479;-67
2021/03/25 05:08:57;;;;;;;91.53;44.90;;;;;;;5.97;69.30;100668.25;5079062;28;20445;-70
2021/03/25 05:11:26;;;;;;;77.13;40.53;;;;;;;6.18;68.62;100667.75;5072549;28;20491;-66
2021/03/25 05:13:56;;;;;;;80.97;40.60;;;;;;;6.35;67.22;100666.63;5077236;28;20452;-69
2021/03/25 05:16:31;;;;;;;81.27;41.03;;;;;;;6.47;66.40;100673.75;5074537;28;20997;-67
2021/03/25 05:19:07;;;;;;;76.30;39.00;;;;;;;6.48;65.68;100675.47;5079244;28;20451;-69
2021/03/25 05:21:39;;;;;;;75.00;37.67;;;;;;;6.63;64.76;100684.22;5079669;28;20477;-68
2021/03/25 05:24:13;;;;;;;66.23;36.33;;;;;;;6.52;64.56;100682.28;5079038;28;20467;-65
2021/03/25 05:26:42;;;;;;;72.43;33.83;;;;;;;6.65;64.07;100677.00;5081644;28;20486;-70
2021/03/25 05:29:09;;;;;;;59.97;32.10;;;;;;;6.59;64.23;100677.41;5082693;28;20471;-68
2021/03/25 05:31:38;;;;;;;59.53;33.17;;;;;;;6.66;64.10;100681.34;5082155;28;20715;-70
2021/03/25 05:34:07;;;;;;;58.57;31.83;;;;;;;6.66;64.09;100678.69;5084355;28;20492;-68
2021/03/25 05:36:34;;;;;;;69.43;35.33;;;;;;;6.79;64.01;100684.03;5082530;28;20487;-69
2021/03/25 05:39:00;;;;;;;67.20;33.77;;;;;;;6.62;64.12;100677.19;5082501;28;20436;-69
2021/03/25 05:41:34;;;;;;;69.57;33.67;;;;;;;6.61;64.61;100686.13;5083079;28;20502;-70
2021/03/25 05:44:39;;;;;;;58.83;33.00;;;;;;;6.70;64.18;100680.19;5083750;28;20447;-70
2021/03/25 05:47:22;;;;;;;61.73;34.27;;;;;;;6.89;63.68;100700.16;5081823;28;20479;-68
2021/03/25 05:50:01;;;;;;;56.47;30.80;;;;;;;6.99;63.39;100695.91;5083708;28;20440;-63
2021/03/25 05:52:45;;;;;;;62.80;33.50;;;;;;;6.91;63.32;100693.81;5079562;28;20480;-68
2021/03/25 05:55:33;;;;;;;61.90;32.73;;;;;;;6.82;64.16;100690.91;5072737;28;20542;-70
2021/03/25 05:58:13;;;;;;;64.77;34.83;;;;;;;7.02;64.05;100693.06;5083081;28;20452;-70
2021/03/25 06:00:47;;;;;;;58.10;30.47;;;;;;;7.08;63.86;100689.09;5081855;28;20483;-70
2021/03/25 06:03:17;;;;;;;58.97;32.90;;;;;;;7.35;62.86;100703.13;5083608;28;20453;-71
2021/03/25 06:05:46;;;;;;;50.80;30.30;;;;;;;7.48;62.84;100700.47;5082795;28;20474;-71
2021/03/25 06:08:21;;;;;;;64.90;33.63;;;;;;;7.69;62.18;100695.41;5082133;28;20440;-70
2021/03/25 06:11:00;;;;;;;57.97;31.93;;;;;;;7.73;62.07;100706.66;5083000;28;20467;-71
2021/03/25 06:13:37;;;;;;;51.80;30.43;;;;;;;7.76;61.63;100697.59;5080319;28;20448;-67
2021/03/25 06:16:40;;;;;;;55.60;30.67;;;;;;;7.70;61.76;100702.41;5079395;28;20483;-70
2021/03/25 06:19:20;;;;;;;50.50;29.83;;;;;;;7.96;61.14;100698.81;5083545;28;20424;-71
2021/03/25 06:22:04;;;;;;;60.03;29.13;;;;;;;8.22;60.26;100704.88;5082207;28;20478;-71
2021/03/25 06:25:01;;;;;;;61.00;30.70;;;;;;;8.40;60.00;100713.28;5082408;28;20441;-68
2021/03/25 06:27:39;;;;;;;53.17;30.87;;;;;;;8.60;59.00;100726.00;5082368;28;20476;-71
2021/03/25 06:30:10;;;;;;;50.47;30.03;;;;;;;8.73;58.45;100733.94;5080742;28;20466;-69
2021/03/25 06:32:50;;;;;;;59.63;32.53;;;;;;;9.11;58.03;100730.13;5082897;28;20566;-73
2021/03/25 06:35:21;;;;;;;56.10;30.93;;;;;;;9.15;57.75;100725.38;5080999;28;20828;-70
2021/03/25 06:37:53;;;;;;;53.40;29.90;;;;;;;9.04;58.51;100721.75;5080473;28;20484;-67
2021/03/25 06:40:21;;;;;;;49.57;29.57;;;;;;;9.04;58.45;100727.09;5081531;28;20490;-68
2021/03/25 06:42:51;;;;;;;54.87;31.83;;;;;;;9.68;56.23;100722.13;5082497;28;20475;-70
2021/03/25 06:45:22;;;;;;;60.50;31.53;;;;;;;9.91;55.72;100730.94;5076466;28;20840;-73
2021/03/25 06:47:55;;;;;;;56.70;32.53;;;;;;;10.15;55.15;100728.94;5081940;28;20444;-71
2021/03/25 06:50:27;;;;;;;64.10;34.43;;;;;;;10.11;55.73;100727.50;5067613;28;20452;-71
2021/03/25 06:52:57;;;;;;;71.13;36.73;;;;;;;10.06;56.03;100723.50;5080605;28;20491;-71
2021/03/25 06:55:26;;;;;;;58.77;33.30;;;;;;;10.06;55.64;100734.19;5080628;28;20480;-69
2021/03/25 06:57:55;;;;;;;61.50;35.67;;;;;;;10.09;55.62;100732.13;5081418;28;20468;-70
2021/03/25 07:00:24;;;;;;;59.03;35.17;;;;;;;10.12;55.88;100734.53;5079459;28;20452;-68
2021/03/25 07:02:50;;;;;;;68.37;34.53;;;;;;;9.86;56.66;100731.31;5080974;28;20989;-68
2021/03/25 07:05:23;;;;;;;57.40;32.17;;;;;;;9.80;56.91;100721.13;5081852;28;20440;-71
2021/03/25 07:07:57;;;;;;;60.70;32.50;;;;;;;9.98;56.72;100726.78;5081319;28;20898;-70
2021/03/25 07:10:24;;;;;;;53.47;29.33;;;;;;;9.99;56.60;100736.50;5070648;28;20439;-68
2021/03/25 07:12:51;;;;;;;53.07;31.33;;;;;;;9.94;56.57;100736.03;5102465;28;20711;-68
2021/03/25 07:15:23;;;;;;;52.33;31.20;;;;;;;9.85;56.28;100736.78;5100316;28;20997;-68
2021/03/25 07:17:49;;;;;;;59.07;31.33;;;;;;;9.70;57.25;100734.34;5084787;28;20444;-69
2021/03/25 07:20:26;;;;;;;57.03;32.63;;;;;;;10.08;56.36;100737.59;5079672;28;20703;-68
2021/03/25 07:23:00;;;;;;;50.93;31.27;;;;;;;10.24;56.29;100735.38;5080781;28;20455;-71
2021/03/25 07:25:29;;;;;;;54.40;31.53;;;;;;;10.50;54.72;100741.25;5081051;28;20475;-70
2021/03/25 07:27:55;;;;;;;55.87;30.50;;;;;;;10.84;54.26;100740.22;5081772;28;20974;-72
2021/03/25 07:30:23;;;;;;;50.77;30.90;;;;;;;10.92;54.22;100741.28;5078931;28;20448;-64
2021/03/25 07:32:52;;;;;;;53.47;29.80;;;;;;;11.20;53.66;100744.25;5079961;28;20495;-65
2021/03/25 07:35:31;;;;;;;58.47;32.50;;;;;;;11.67;52.34;100738.41;5079906;28;20460;-68
2021/03/25 07:38:00;;;;;;;60.03;33.67;;;;;;;11.27;52.36;100747.25;5079374;28;20483;-67
2021/03/25 07:40:33;;;;;;;48.80;28.93;;;;;;;11.28;52.74;100744.44;5080309;28;20471;-67
2021/03/25 07:43:15;;;;;;;49.87;30.50;;;;;;;11.60;52.37;100745.28;5075256;28;20987;-66
2021/03/25 07:45:41;;;;;;;52.00;30.00;;;;;;;11.26;53.49;100751.75;5078597;28;20472;-68
2021/03/25 07:48:18;;;;;;;62.53;34.87;;;;;;;10.95;54.16;100750.00;5081047;28;20443;-68
2021/03/25 07:50:47;;;;;;;50.83;32.47;;;;;;;11.30;52.87;100752.31;5080311;28;20479;-69
2021/03/25 07:53:19;;;;;;;49.77;32.00;;;;;;;11.47;53.37;100754.41;5080410;28;20460;-65
2021/03/25 07:55:46;;;;;;;57.70;30.83;;;;;;;11.15;53.69;100759.03;5079311;28;20480;-72
2021/03/25 07:58:18;;;;;;;54.03;32.87;;;;;;;11.19;54.39;100758.59;5078848;28;20497;-72
2021/03/25 08:00:44;;;;;;;51.13;30.30;;;;;;;11.21;57.10;100761.16;5078023;28;20483;-71
2021/03/25 08:03:12;;;;;;;46.80;29.73;;;;;;;11.34;54.87;100752.94;5079839;28;20466;-67
2021/03/25 08:05:39;;;;;;;47.10;31.13;;;;;;;11.56;53.57;100762.59;5079413;28;20871;-64
2021/03/25 08:08:19;;;;;;;51.43;31.70;;;;;;;11.64;53.26;100754.75;5079004;28;20427;-65
2021/03/25 08:10:47;;;;;;;58.97;34.73;;;;;;;10.42;56.99;100751.72;5077742;28;21172;-69
2021/03/25 08:13:17;;;;;;;56.10;34.50;;;;;;;11.02;55.26;100748.50;5078999;28;20514;-65
2021/03/25 08:15:45;;;;;;;61.40;35.50;;;;;;;11.49;53.28;100748.88;5082975;28;20489;-65
2021/03/25 08:18:44;;;;;;;66.63;34.47;;;;;;;11.26;53.55;100745.53;5083578;28;20470;-66
2021/03/25 08:21:19;;;;;;;56.33;33.87;;;;;;;11.35;54.58;100749.25;5075260;28;20468;-68
2021/03/25 08:24:20;;;;;;;57.90;32.47;;;;;;;11.84;52.74;100743.09;5080514;28;20451;-66
2021/03/25 08:26:56;;;;;;;60.13;35.50;;;;;;;12.56;50.46;100749.16;4996193;28;20513;-68
2021/03/25 08:29:28;;;;;;;62.03;32.83;;;;;;;12.80;49.64;100750.56;5015006;28;20449;-66
2021/03/25 08:32:00;;;;;;;60.30;32.97;;;;;;;12.28;51.36;100745.47;5027037;28;20486;-65
2021/03/25 08:34:39;;;;;;;54.60;33.07;;;;;;;12.47;51.19;100743.81;5037881;28;20456;-73
2021/03/25 08:37:26;;;;;;;59.83;33.80;;;;;;;12.08;52.65;100749.13;5027240;28;20486;-69
2021/03/25 08:39:57;;;;;;;58.53;33.30;;;;;;;12.32;52.52;100746.03;5008047;28;20459;-69
2021/03/25 08:42:29;;;;;;;51.37;30.03;;;;;;;12.44;51.80;100750.28;5018127;28;20521;-69
2021/03/25 08:45:19;;;;;;;56.53;33.33;;;;;;;12.60;51.95;100757.75;5016624;28;20481;-69
2021/03/25 08:47:51;;;;;;;54.50;30.63;;;;;;;12.97;50.81;100754.38;5008162;28;20470;-68
2021/03/25 08:50:29;;;;;;;58.23;34.13;;;;;;;12.94;50.87;100768.91;5016396;28;20445;-70
2021/03/25 08:52:57;;;;;;;66.23;37.63;;;;;;;12.34;52.29;100761.03;5015420;28;20517;-68
2021/03/25 08:55:32;;;;;;;64.80;37.47;;;;;;;12.66;51.55;100762.56;5017769;28;20715;-69
2021/03/25 08:58:01;;;;;;;57.80;35.27;;;;;;;13.17;50.16;100756.00;5021211;28;20463;-69
2021/03/25 09:00:30;;;;;;;58.23;33.57;;;;;;;13.36;49.42;100759.66;5026133;28;20469;-68
2021/03/25 09:03:00;;;;;;;61.13;35.87;;;;;;;13.48;49.67;100763.84;5049252;28;20451;-68
2021/03/25 09:05:28;;;;;;;58.90;34.80;;;;;;;13.62;49.13;100759.84;5089860;28;20865;-68
2021/03/25 09:07:55;;;;;;;61.60;37.27;;;;;;;13.83;48.92;100758.75;5085277;28;20442;-64
2021/03/25 09:10:33;;;;;;;53.70;32.90;;;;;;;14.01;47.75;100761.47;5083994;28;20772;-66
2021/03/25 09:12:59;;;;;;;61.00;36.27;;;;;;;14.25;47.63;100760.91;5086311;28;20519;-67
2021/03/25 09:15:26;;;;;;;59.00;36.60;;;;;;;14.52;46.88;100759.19;5086003;28;20511;-67
2021/03/25 09:17:54;;;;;;;69.40;39.20;;;;;;;14.09;47.46;100750.81;5087322;28;20455;-63
2021/03/25 09:20:27;;;;;;;62.93;38.50;;;;;;;14.56;46.90;100755.16;5089522;28;20450;-70
2021/03/25 09:22:57;;;;;;;62.03;37.63;;;;;;;13.59;48.90;100751.22;5080096;28;20530;-68
2021/03/25 09:25:36;;;;;;;57.90;38.37;;;;;;;14.44;46.76;100749.16;5082749;28;20451;-69
2021/03/25 09:28:04;;;;;;;64.10;40.40;;;;;;;14.75;46.01;100751.50;5075465;28;20443;-68
2021/03/25 09:30:35;;;;;;;62.67;39.03;;;;;;;15.63;44.50;100737.94;5075746;28;20472;-69
2021/03/25 09:33:34;;;;;;;61.60;38.50;;;;;;;15.89;43.04;100745.13;5075307;28;21134;-69
2021/03/25 09:36:01;;;;;;;70.17;42.93;;;;;;;14.86;45.36;100751.28;5079959;28;21015;-72
2021/03/25 09:38:31;;;;;;;64.83;42.20;;;;;;;14.68;45.43;100752.09;5082968;28;20479;-69
2021/03/25 09:41:00;;;;;;;59.30;38.60;;;;;;;15.40;43.82;100743.03;5079289;28;20560;-70
2021/03/25 09:43:36;;;;;;;58.97;38.90;;;;;;;16.19;42.92;100749.94;5086992;28;20443;-67
2021/03/25 09:46:29;;;;;;;62.93;37.37;;;;;;;15.89;43.13;100739.75;5080982;28;20486;-69
2021/03/25 09:48:56;;;;;;;65.17;38.77;;;;;;;16.19;42.71;100741.84;5084561;28;20972;-67
2021/03/25 09:51:26;;;;;;;58.93;36.83;;;;;;;15.80;43.52;100746.97;5082903;28;21076;-69
2021/03/25 09:53:53;;;;;;;52.93;37.43;;;;;;;15.56;43.97;100744.97;5088964;28;20455;-68
2021/03/25 09:56:32;;;;;;;66.23;39.13;;;;;;;15.02;45.19;100739.78;5084048;28;20502;-67
2021/03/25 09:58:59;;;;;;;57.07;36.10;;;;;;;15.21;44.89;100744.09;5084232;28;20909;-67
2021/03/25 10:01:43;;;;;;;66.70;39.27;;;;;;;15.80;43.55;100737.00;5085676;28;20534;-70
2021/03/25 10:04:34;;;;;;;57.27;36.70;;;;;;;15.99;42.43;100738.59;5082981;28;20444;-68
2021/03/25 10:07:33;;;;;;;60.53;39.17;;;;;;;15.34;44.75;100736.41;5079621;28;20480;-66
2021/03/25 10:10:04;;;;;;;57.97;36.70;;;;;;;15.75;42.79;100739.34;5081367;28;20452;-70
2021/03/25 10:12:50;;;;;;;59.43;37.47;;;;;;;16.09;42.73;100738.47;5082473;28;20687;-66
2021/03/25 10:15:47;;;;;;;58.83;36.17;;;;;;;16.52;42.05;100744.59;5086811;28;20535;-69
2021/03/25 10:18:58;;;;;;;61.57;38.83;;;;;;;16.70;41.35;100738.19;5057309;28;20490;-63
2021/03/25 10:22:02;;;;;;;61.33;35.37;;;;;;;16.85;40.88;100741.94;5086760;28;20473;-66
2021/03/25 10:24:38;;;;;;;53.40;35.77;;;;;;;16.56;40.73;100740.56;5086253;28;20443;-67
2021/03/25 10:27:20;;;;;;;58.40;38.03;;;;;;;16.50;41.59;100737.69;5088953;28;20937;-66
2021/03/25 10:29:48;;;;;;;57.70;37.40;;;;;;;16.20;41.18;100740.00;5087272;28;20454;-67
2021/03/25 10:32:20;;;;;;;64.90;38.90;;;;;;;16.71;40.90;100734.47;5094514;28;20604;-68
2021/03/25 10:34:49;;;;;;;61.73;37.97;;;;;;;16.67;40.78;100725.88;5079158;28;20467;-65
2021/03/25 10:37:37;;;;;;;58.37;36.63;;;;;;;17.15;39.27;100727.88;5078999;28;20483;-66
2021/03/25 10:40:16;;;;;;;62.60;37.20;;;;;;;17.43;39.11;100722.91;5081387;28;20446;-68
2021/03/25 10:42:44;;;;;;;60.23;36.53;;;;;;;16.55;39.56;100722.66;5078788;28;20459;-69
2021/03/25 10:45:21;;;;;;;62.63;39.67;;;;;;;16.26;40.72;100720.44;5077854;28;20451;-69
2021/03/25 10:47:52;;;;;;;57.70;36.77;;;;;;;17.12;39.92;100723.69;5080598;28;20518;-65
2021/03/25 10:50:20;;;;;;;60.20;37.57;;;;;;;17.46;38.88;100714.44;5078561;28;20447;-65
2021/03/25 10:52:46;;;;;;;55.90;38.30;;;;;;;17.45;38.86;100710.09;5081067;28;20693;-67
2021/03/25 10:55:20;;;;;;;53.87;36.23;;;;;;;16.98;39.07;100711.72;5079294;28;21047;-67
2021/03/25 10:57:47;;;;;;;60.70;37.57;;;;;;;16.72;39.82;100707.31;5079160;28;20448;-68
2021/03/25 11:00:20;;;;;;;64.27;39.70;;;;;;;16.45;39.99;100713.06;5078250;28;20460;-67
2021/03/25 11:02:47;;;;;;;57.47;37.77;;;;;;;16.55;39.98;100703.78;5078663;28;20517;-72
2021/03/25 11:05:20;;;;;;;60.37;39.37;;;;;;;16.36;40.02;100704.94;5078237;28;20501;-66
2021/03/25 11:07:49;;;;;;;61.53;37.50;;;;;;;16.75;40.09;100693.47;5078058;28;20510;-66
2021/03/25 11:10:22;;;;;;;58.93;38.87;;;;;;;17.22;39.38;100693.75;5079493;28;20452;-66
2021/03/25 11:12:56;;;;;;;60.47;36.73;;;;;;;17.86;38.36;100682.88;5076170;28;20502;-65
2021/03/25 11:15:29;;;;;;;59.80;37.90;;;;;;;18.35;37.00;100685.25;5077932;28;20850;-65
2021/03/25 11:17:56;;;;;;;63.83;37.90;;;;;;;19.02;35.64;100690.97;5071311;28;20444;-65
2021/03/25 11:20:25;;;;;;;65.17;39.30;;;;;;;19.78;35.12;100683.47;5074743;28;20448;-66
2021/03/25 11:22:51;;;;;;;69.03;41.93;;;;;;;19.27;35.43;100683.38;5078258;28;20456;-65
2021/03/25 11:25:22;;;;;;;55.13;40.17;;;;;;;19.19;36.05;100682.47;5079883;28;20454;-66
2021/03/25 11:27:49;;;;;;;55.90;39.30;;;;;;;18.96;36.22;100689.84;5065927;28;20453;-65
2021/03/25 11:30:28;;;;;;;62.03;38.63;;;;;;;19.25;35.77;100686.31;5080295;28;20455;-64
2021/03/25 11:32:55;;;;;;;69.70;41.03;;;;;;;19.36;35.84;100687.72;5080618;28;20499;-64
2021/03/25 11:35:26;;;;;;;57.90;37.83;;;;;;;20.32;35.19;100680.28;5078514;28;21045;-64
2021/03/25 11:37:53;;;;;;;57.90;40.27;;;;;;;20.52;34.19;100690.53;5067595;28;20472;-64